sensor_id;sensor_type;location;lat;lon;timestamp;P1;durP1;ratioP1;P2;durP2;ratioP2
55497;SDS011;41357;52.806;18.268;2022-11-04T00:01:27;16.23;;;7.15;;
55497;SDS011;41357;52.806;18.268;2022-11-04T00:03:53;13.35;;;6.72;;
55497;SDS011;41357;52.806;18.268;2022-11-04T00:06:19;15.05;;;6.93;;
55497;SDS011;41357;52.806;18.268;2022-11-04T00:08:52;14.43;;;7.22;;
55497;SDS011;41357;52.806;18.268;2022-11-04T00:11:18;14.23;;;6.80;;
55497;SDS011;41357;52.806;18.268;2022-11-04T00:14:04;16.58;;;7.40;;
55497;SDS011;41357;52.806;18.268;2022-11-04T00:16:30;13.05;;;6.30;;
55497;SDS011;41357;52.806;18.268;2022-11-04T00:19:15;15.52;;;7.20;;
55497;SDS011;41357;52.806;18.268;2022-11-04T00:21:42;15.57;;;6.95;;
55497;SDS011;41357;52.806;18.268;2022-11-04T00:24:26;16.63;;;7.70;;
55497;SDS011;41357;52.806;18.268;2022-11-04T00:27:11;16.63;;;6.80;;
55497;SDS011;41357;52.806;18.268;2022-11-04T00:29:56;19.83;;;8.25;;
55497;SDS011;41357;52.806;18.268;2022-11-04T00:32:23;19.33;;;7.03;;
55497;SDS011;41357;52.806;18.268;2022-11-04T00:35:07;16.00;;;7.20;;
55497;SDS011;41357;52.806;18.268;2022-11-04T00:37:37;14.77;;;7.90;;
55497;SDS011;41357;52.806;18.268;2022-11-04T00:40:04;15.65;;;7.78;;
55497;SDS011;41357;52.806;18.268;2022-11-04T00:42:30;19.80;;;7.25;;
55497;SDS011;41357;52.806;18.268;2022-11-04T00:44:57;15.63;;;7.63;;
55497;SDS011;41357;52.806;18.268;2022-11-04T00:47:23;17.30;;;7.22;;
55497;SDS011;41357;52.806;18.268;2022-11-04T00:49:49;18.30;;;8.10;;
55497;SDS011;41357;52.806;18.268;2022-11-04T00:52:16;18.77;;;8.00;;
55497;SDS011;41357;52.806;18.268;2022-11-04T00:54:42;17.88;;;7.28;;
55497;SDS011;41357;52.806;18.268;2022-11-04T00:57:08;18.88;;;7.80;;
55497;SDS011;41357;52.806;18.268;2022-11-04T00:59:34;15.63;;;7.47;;
55497;SDS011;41357;52.806;18.268;2022-11-04T01:02:01;18.60;;;7.47;;
55497;SDS011;41357;52.806;18.268;2022-11-04T01:04:27;17.67;;;7.90;;
55497;SDS011;41357;52.806;18.268;2022-11-04T01:06:53;14.27;;;6.80;;
55497;SDS011;41357;52.806;18.268;2022-11-04T01:09:19;16.45;;;8.07;;
55497;SDS011;41357;52.806;18.268;2022-11-04T01:11:45;16.42;;;7.65;;
55497;SDS011;41357;52.806;18.268;2022-11-04T01:14:11;16.23;;;7.05;;
55497;SDS011;41357;52.806;18.268;2022-11-04T01:16:37;17.25;;;7.25;;
55497;SDS011;41357;52.806;18.268;2022-11-04T01:19:04;20.90;;;8.27;;
55497;SDS011;41357;52.806;18.268;2022-11-04T01:21:30;22.70;;;7.47;;
55497;SDS011;41357;52.806;18.268;2022-11-04T01:23:58;17.98;;;7.55;;
55497;SDS011;41357;52.806;18.268;2022-11-04T01:26:24;17.13;;;8.07;;
55497;SDS011;41357;52.806;18.268;2022-11-04T01:28:51;11.73;;;6.60;;
55497;SDS011;41357;52.806;18.268;2022-11-04T01:31:28;15.43;;;7.13;;
55497;SDS011;41357;52.806;18.268;2022-11-04T01:33:55;14.68;;;7.60;;
55497;SDS011;41357;52.806;18.268;2022-11-04T01:36:22;14.65;;;7.22;;
55497;SDS011;41357;52.806;18.268;2022-11-04T01:38:48;15.02;;;7.65;;
55497;SDS011;41357;52.806;18.268;2022-11-04T01:41:19;15.10;;;6.50;;
55497;SDS011;41357;52.806;18.268;2022-11-04T01:46:15;13.43;;;7.03;;
55497;SDS011;41357;52.806;18.268;2022-11-04T01:48:43;14.93;;;7.28;;
55497;SDS011;41357;52.806;18.268;2022-11-04T01:51:10;13.25;;;7.22;;
55497;SDS011;41357;52.806;18.268;2022-11-04T01:53:36;14.32;;;6.20;;
55497;SDS011;41357;52.806;18.268;2022-11-04T01:56:04;23.95;;;7.43;;
55497;SDS011;41357;52.806;18.268;2022-11-04T01:58:37;15.45;;;6.72;;
55497;SDS011;41357;52.806;18.268;2022-11-04T02:01:04;17.90;;;7.45;;
55497;SDS011;41357;52.806;18.268;2022-11-04T02:03:33;11.48;;;6.70;;
55497;SDS011;41357;52.806;18.268;2022-11-04T02:06:00;12.98;;;7.30;;
55497;SDS011;41357;52.806;18.268;2022-11-04T02:08:26;18.33;;;7.18;;
55497;SDS011;41357;52.806;18.268;2022-11-04T02:10:56;15.00;;;6.15;;
55497;SDS011;41357;52.806;18.268;2022-11-04T02:13:24;18.23;;;7.97;;
55497;SDS011;41357;52.806;18.268;2022-11-04T02:16:01;28.55;;;14.13;;
55497;SDS011;41357;52.806;18.268;2022-11-04T02:21:29;17.50;;;7.18;;
55497;SDS011;41357;52.806;18.268;2022-11-04T02:27:09;16.80;;;7.13;;
55497;SDS011;41357;52.806;18.268;2022-11-04T02:29:42;15.40;;;7.30;;
55497;SDS011;41357;52.806;18.268;2022-11-04T02:34:50;20.95;;;8.48;;
55497;SDS011;41357;52.806;18.268;2022-11-04T02:37:24;15.10;;;7.20;;
55497;SDS011;41357;52.806;18.268;2022-11-04T02:40:28;19.70;;;7.88;;
55497;SDS011;41357;52.806;18.268;2022-11-04T02:45:21;18.85;;;7.65;;
55497;SDS011;41357;52.806;18.268;2022-11-04T02:48:01;15.88;;;6.72;;
55497;SDS011;41357;52.806;18.268;2022-11-04T02:50:31;21.02;;;6.95;;
55497;SDS011;41357;52.806;18.268;2022-11-04T02:53:02;24.08;;;9.55;;
55497;SDS011;41357;52.806;18.268;2022-11-04T02:55:34;23.83;;;8.73;;
55497;SDS011;41357;52.806;18.268;2022-11-04T02:58:01;14.88;;;5.97;;
55497;SDS011;41357;52.806;18.268;2022-11-04T03:00:30;25.35;;;10.05;;
55497;SDS011;41357;52.806;18.268;2022-11-04T03:03:00;21.05;;;8.10;;
55497;SDS011;41357;52.806;18.268;2022-11-04T03:05:32;20.60;;;7.15;;
55497;SDS011;41357;52.806;18.268;2022-11-04T03:10:39;15.25;;;6.95;;
55497;SDS011;41357;52.806;18.268;2022-11-04T03:13:10;17.13;;;6.97;;
55497;SDS011;41357;52.806;18.268;2022-11-04T03:15:38;12.63;;;6.95;;
55497;SDS011;41357;52.806;18.268;2022-11-04T03:18:12;18.70;;;6.65;;
55497;SDS011;41357;52.806;18.268;2022-11-04T03:20:41;26.83;;;8.75;;
55497;SDS011;41357;52.806;18.268;2022-11-04T03:23:09;16.98;;;7.97;;
55497;SDS011;41357;52.806;18.268;2022-11-04T03:25:37;13.73;;;7.15;;
55497;SDS011;41357;52.806;18.268;2022-11-04T03:30:34;22.48;;;8.38;;
55497;SDS011;41357;52.806;18.268;2022-11-04T03:33:02;17.73;;;7.05;;
55497;SDS011;41357;52.806;18.268;2022-11-04T03:35:30;19.40;;;7.35;;
55497;SDS011;41357;52.806;18.268;2022-11-04T03:37:57;17.20;;;7.45;;
55497;SDS011;41357;52.806;18.268;2022-11-04T03:40:23;20.52;;;8.02;;
55497;SDS011;41357;52.806;18.268;2022-11-04T03:45:21;22.85;;;9.32;;
55497;SDS011;41357;52.806;18.268;2022-11-04T03:47:48;15.95;;;7.63;;
55497;SDS011;41357;52.806;18.268;2022-11-04T03:50:19;14.30;;;7.55;;
55497;SDS011;41357;52.806;18.268;2022-11-04T03:52:48;19.15;;;8.48;;
55497;SDS011;41357;52.806;18.268;2022-11-04T03:55:14;14.25;;;7.50;;
55497;SDS011;41357;52.806;18.268;2022-11-04T04:00:14;24.42;;;8.93;;
55497;SDS011;41357;52.806;18.268;2022-11-04T04:05:34;24.90;;;9.60;;
55497;SDS011;41357;52.806;18.268;2022-11-04T04:08:09;25.00;;;8.88;;
55497;SDS011;41357;52.806;18.268;2022-11-04T04:10:39;19.55;;;7.78;;
55497;SDS011;41357;52.806;18.268;2022-11-04T04:15:40;18.95;;;8.13;;
55497;SDS011;41357;52.806;18.268;2022-11-04T04:18:08;21.70;;;8.88;;
55497;SDS011;41357;52.806;18.268;2022-11-04T04:20:36;19.25;;;8.05;;
55497;SDS011;41357;52.806;18.268;2022-11-04T04:23:04;23.77;;;9.65;;
55497;SDS011;41357;52.806;18.268;2022-11-04T04:25:55;16.95;;;8.85;;
55497;SDS011;41357;52.806;18.268;2022-11-04T04:28:40;23.27;;;10.18;;
55497;SDS011;41357;52.806;18.268;2022-11-04T04:31:07;24.73;;;8.88;;
55497;SDS011;41357;52.806;18.268;2022-11-04T04:33:35;20.10;;;7.78;;
55497;SDS011;41357;52.806;18.268;2022-11-04T04:36:02;17.58;;;7.40;;
55497;SDS011;41357;52.806;18.268;2022-11-04T04:38:30;19.23;;;8.43;;
55497;SDS011;41357;52.806;18.268;2022-11-04T04:44:00;18.50;;;8.40;;
55497;SDS011;41357;52.806;18.268;2022-11-04T04:46:46;16.77;;;7.68;;
55497;SDS011;41357;52.806;18.268;2022-11-04T04:49:13;17.33;;;8.43;;
55497;SDS011;41357;52.806;18.268;2022-11-04T04:51:41;20.70;;;9.07;;
55497;SDS011;41357;52.806;18.268;2022-11-04T04:54:08;18.88;;;8.23;;
55497;SDS011;41357;52.806;18.268;2022-11-04T04:56:34;19.25;;;7.97;;
55497;SDS011;41357;52.806;18.268;2022-11-04T04:59:00;18.63;;;8.23;;
55497;SDS011;41357;52.806;18.268;2022-11-04T05:01:26;18.95;;;7.50;;
55497;SDS011;41357;52.806;18.268;2022-11-04T05:03:52;23.17;;;9.52;;
55497;SDS011;41357;52.806;18.268;2022-11-04T05:06:18;14.35;;;7.75;;
55497;SDS011;41357;52.806;18.268;2022-11-04T05:08:45;19.23;;;8.65;;
55497;SDS011;41357;52.806;18.268;2022-11-04T05:11:11;16.55;;;7.57;;
55497;SDS011;41357;52.806;18.268;2022-11-04T05:13:37;17.48;;;7.63;;
55497;SDS011;41357;52.806;18.268;2022-11-04T05:16:04;19.10;;;7.45;;
55497;SDS011;41357;52.806;18.268;2022-11-04T05:18:30;18.42;;;7.70;;
55497;SDS011;41357;52.806;18.268;2022-11-04T05:20:56;17.50;;;7.38;;
55497;SDS011;41357;52.806;18.268;2022-11-04T05:23:23;19.05;;;7.03;;
55497;SDS011;41357;52.806;18.268;2022-11-04T05:25:49;21.63;;;7.05;;
55497;SDS011;41357;52.806;18.268;2022-11-04T05:28:15;17.55;;;7.68;;
55497;SDS011;41357;52.806;18.268;2022-11-04T05:30:41;15.75;;;6.53;;
55497;SDS011;41357;52.806;18.268;2022-11-04T05:33:08;14.77;;;7.50;;
55497;SDS011;41357;52.806;18.268;2022-11-04T05:35:34;13.60;;;7.65;;
55497;SDS011;41357;52.806;18.268;2022-11-04T05:38:00;15.98;;;7.28;;
55497;SDS011;41357;52.806;18.268;2022-11-04T05:40:27;19.60;;;8.23;;
55497;SDS011;41357;52.806;18.268;2022-11-04T05:42:53;17.67;;;7.70;;
55497;SDS011;41357;52.806;18.268;2022-11-04T05:45:21;21.17;;;8.15;;
55497;SDS011;41357;52.806;18.268;2022-11-04T05:47:48;25.75;;;10.27;;
55497;SDS011;41357;52.806;18.268;2022-11-04T05:50:14;21.20;;;7.75;;
55497;SDS011;41357;52.806;18.268;2022-11-04T05:52:40;18.98;;;6.90;;
55497;SDS011;41357;52.806;18.268;2022-11-04T05:55:06;21.02;;;7.20;;
55497;SDS011;41357;52.806;18.268;2022-11-04T05:57:32;12.98;;;6.95;;
55497;SDS011;41357;52.806;18.268;2022-11-04T05:59:59;20.63;;;7.03;;
55497;SDS011;41357;52.806;18.268;2022-11-04T06:02:25;16.48;;;6.57;;
55497;SDS011;41357;52.806;18.268;2022-11-04T06:04:52;18.52;;;7.35;;
55497;SDS011;41357;52.806;18.268;2022-11-04T06:07:18;19.42;;;7.82;;
55497;SDS011;41357;52.806;18.268;2022-11-04T06:09:44;17.75;;;7.22;;
55497;SDS011;41357;52.806;18.268;2022-11-04T06:12:11;13.68;;;6.95;;
55497;SDS011;41357;52.806;18.268;2022-11-04T06:14:41;14.50;;;7.40;;
55497;SDS011;41357;52.806;18.268;2022-11-04T06:17:15;17.40;;;7.75;;
55497;SDS011;41357;52.806;18.268;2022-11-04T06:19:41;14.27;;;6.20;;
55497;SDS011;41357;52.806;18.268;2022-11-04T06:22:11;20.13;;;7.60;;
55497;SDS011;41357;52.806;18.268;2022-11-04T06:24:38;17.20;;;8.50;;
55497;SDS011;41357;52.806;18.268;2022-11-04T06:27:04;16.77;;;7.53;;
55497;SDS011;41357;52.806;18.268;2022-11-04T06:29:30;18.17;;;7.53;;
55497;SDS011;41357;52.806;18.268;2022-11-04T06:31:56;18.30;;;8.18;;
55497;SDS011;41357;52.806;18.268;2022-11-04T06:34:23;16.10;;;8.35;;
55497;SDS011;41357;52.806;18.268;2022-11-04T06:36:49;20.58;;;9.65;;
55497;SDS011;41357;52.806;18.268;2022-11-04T06:39:15;20.25;;;8.98;;
55497;SDS011;41357;52.806;18.268;2022-11-04T06:41:41;18.58;;;8.20;;
55497;SDS011;41357;52.806;18.268;2022-11-04T06:44:07;24.13;;;8.95;;
55497;SDS011;41357;52.806;18.268;2022-11-04T06:46:37;20.52;;;8.73;;
55497;SDS011;41357;52.806;18.268;2022-11-04T06:49:05;17.70;;;7.77;;
55497;SDS011;41357;52.806;18.268;2022-11-04T06:51:31;15.90;;;8.05;;
55497;SDS011;41357;52.806;18.268;2022-11-04T06:53:57;18.63;;;7.50;;
55497;SDS011;41357;52.806;18.268;2022-11-04T06:56:24;18.13;;;8.55;;
55497;SDS011;41357;52.806;18.268;2022-11-04T06:58:51;16.10;;;8.30;;
55497;SDS011;41357;52.806;18.268;2022-11-04T07:01:17;23.25;;;9.27;;
55497;SDS011;41357;52.806;18.268;2022-11-04T07:03:47;17.45;;;8.52;;
55497;SDS011;41357;52.806;18.268;2022-11-04T07:06:13;19.90;;;9.07;;
55497;SDS011;41357;52.806;18.268;2022-11-04T07:08:39;23.00;;;10.32;;
55497;SDS011;41357;52.806;18.268;2022-11-04T07:11:06;21.88;;;10.52;;
55497;SDS011;41357;52.806;18.268;2022-11-04T07:13:32;28.95;;;12.00;;
55497;SDS011;41357;52.806;18.268;2022-11-04T07:15:58;17.52;;;8.68;;
55497;SDS011;41357;52.806;18.268;2022-11-04T07:18:24;18.38;;;7.35;;
55497;SDS011;41357;52.806;18.268;2022-11-04T07:20:51;17.40;;;7.80;;
55497;SDS011;41357;52.806;18.268;2022-11-04T07:23:17;16.45;;;7.55;;
55497;SDS011;41357;52.806;18.268;2022-11-04T07:25:43;16.98;;;8.52;;
55497;SDS011;41357;52.806;18.268;2022-11-04T07:28:09;20.63;;;8.77;;
55497;SDS011;41357;52.806;18.268;2022-11-04T07:30:35;17.48;;;7.85;;
55497;SDS011;41357;52.806;18.268;2022-11-04T07:33:01;20.33;;;8.68;;
55497;SDS011;41357;52.806;18.268;2022-11-04T07:35:28;19.65;;;8.48;;
55497;SDS011;41357;52.806;18.268;2022-11-04T07:37:54;18.70;;;9.07;;
55497;SDS011;41357;52.806;18.268;2022-11-04T07:40:20;18.02;;;7.78;;
55497;SDS011;41357;52.806;18.268;2022-11-04T07:42:46;18.52;;;7.90;;
55497;SDS011;41357;52.806;18.268;2022-11-04T07:45:12;25.33;;;9.00;;
55497;SDS011;41357;52.806;18.268;2022-11-04T07:47:38;17.85;;;8.63;;
55497;SDS011;41357;52.806;18.268;2022-11-04T07:50:04;20.30;;;7.97;;
55497;SDS011;41357;52.806;18.268;2022-11-04T07:52:31;18.35;;;8.93;;
55497;SDS011;41357;52.806;18.268;2022-11-04T07:54:57;23.65;;;9.70;;
55497;SDS011;41357;52.806;18.268;2022-11-04T07:57:23;21.38;;;9.60;;
55497;SDS011;41357;52.806;18.268;2022-11-04T07:59:49;14.82;;;9.43;;
55497;SDS011;41357;52.806;18.268;2022-11-04T08:02:15;16.70;;;8.25;;
55497;SDS011;41357;52.806;18.268;2022-11-04T08:04:41;21.15;;;8.13;;
55497;SDS011;41357;52.806;18.268;2022-11-04T08:07:08;14.90;;;8.23;;
55497;SDS011;41357;52.806;18.268;2022-11-04T08:09:34;19.58;;;7.50;;
55497;SDS011;41357;52.806;18.268;2022-11-04T08:12:01;18.48;;;8.15;;
55497;SDS011;41357;52.806;18.268;2022-11-04T08:14:27;17.33;;;8.05;;
55497;SDS011;41357;52.806;18.268;2022-11-04T08:16:53;24.45;;;9.02;;
55497;SDS011;41357;52.806;18.268;2022-11-04T08:19:19;23.23;;;8.70;;
55497;SDS011;41357;52.806;18.268;2022-11-04T08:21:45;22.75;;;9.15;;
55497;SDS011;41357;52.806;18.268;2022-11-04T08:24:11;18.08;;;8.98;;
55497;SDS011;41357;52.806;18.268;2022-11-04T08:26:38;20.38;;;8.35;;
55497;SDS011;41357;52.806;18.268;2022-11-04T08:29:07;25.88;;;9.05;;
55497;SDS011;41357;52.806;18.268;2022-11-04T08:31:35;20.08;;;9.88;;
55497;SDS011;41357;52.806;18.268;2022-11-04T08:34:01;18.55;;;8.68;;
55497;SDS011;41357;52.806;18.268;2022-11-04T08:36:31;18.73;;;9.63;;
55497;SDS011;41357;52.806;18.268;2022-11-04T08:38:58;21.67;;;8.88;;
55497;SDS011;41357;52.806;18.268;2022-11-04T08:41:25;20.13;;;8.95;;
55497;SDS011;41357;52.806;18.268;2022-11-04T08:43:53;19.02;;;9.05;;
55497;SDS011;41357;52.806;18.268;2022-11-04T08:46:20;16.52;;;8.63;;
55497;SDS011;41357;52.806;18.268;2022-11-04T08:48:47;21.33;;;8.90;;
55497;SDS011;41357;52.806;18.268;2022-11-04T08:51:18;20.27;;;8.35;;
55497;SDS011;41357;52.806;18.268;2022-11-04T08:53:45;20.67;;;8.60;;
55497;SDS011;41357;52.806;18.268;2022-11-04T08:56:21;18.58;;;8.63;;
55497;SDS011;41357;52.806;18.268;2022-11-04T08:58:48;21.08;;;8.90;;
55497;SDS011;41357;52.806;18.268;2022-11-04T09:01:14;17.33;;;8.80;;
55497;SDS011;41357;52.806;18.268;2022-11-04T09:03:40;20.55;;;8.50;;
55497;SDS011;41357;52.806;18.268;2022-11-04T09:06:08;15.73;;;8.55;;
55497;SDS011;41357;52.806;18.268;2022-11-04T09:08:35;22.27;;;8.55;;
55497;SDS011;41357;52.806;18.268;2022-11-04T09:11:05;21.95;;;8.88;;
55497;SDS011;41357;52.806;18.268;2022-11-04T09:13:31;22.60;;;9.85;;
55497;SDS011;41357;52.806;18.268;2022-11-04T09:15:58;24.52;;;11.00;;
55497;SDS011;41357;52.806;18.268;2022-11-04T09:18:24;18.77;;;8.75;;
55497;SDS011;41357;52.806;18.268;2022-11-04T09:20:50;21.10;;;9.77;;
55497;SDS011;41357;52.806;18.268;2022-11-04T09:23:16;18.25;;;9.10;;
55497;SDS011;41357;52.806;18.268;2022-11-04T09:25:43;18.10;;;9.43;;
55497;SDS011;41357;52.806;18.268;2022-11-04T09:28:09;18.77;;;9.75;;
55497;SDS011;41357;52.806;18.268;2022-11-04T09:30:35;20.33;;;10.75;;
55497;SDS011;41357;52.806;18.268;2022-11-04T09:33:01;20.98;;;9.57;;
55497;SDS011;41357;52.806;18.268;2022-11-04T09:35:28;19.52;;;9.90;;
55497;SDS011;41357;52.806;18.268;2022-11-04T09:37:54;24.30;;;9.38;;
55497;SDS011;41357;52.806;18.268;2022-11-04T09:40:21;17.60;;;8.90;;
55497;SDS011;41357;52.806;18.268;2022-11-04T09:45:37;20.92;;;9.50;;
55497;SDS011;41357;52.806;18.268;2022-11-04T09:48:05;22.13;;;8.90;;
55497;SDS011;41357;52.806;18.268;2022-11-04T09:50:50;20.45;;;8.98;;
55497;SDS011;41357;52.806;18.268;2022-11-04T09:56:09;19.35;;;10.82;;
55497;SDS011;41357;52.806;18.268;2022-11-04T09:58:38;17.85;;;9.55;;
55497;SDS011;41357;52.806;18.268;2022-11-04T10:06:10;19.58;;;9.35;;
55497;SDS011;41357;52.806;18.268;2022-11-04T10:21:37;18.17;;;8.07;;
55497;SDS011;41357;52.806;18.268;2022-11-04T10:24:17;15.98;;;8.73;;
55497;SDS011;41357;52.806;18.268;2022-11-04T10:26:45;16.08;;;8.80;;
55497;SDS011;41357;52.806;18.268;2022-11-04T10:29:36;26.08;;;11.02;;
55497;SDS011;41357;52.806;18.268;2022-11-04T10:32:00;20.50;;;9.98;;
55497;SDS011;41357;52.806;18.268;2022-11-04T10:36:54;25.25;;;10.35;;
55497;SDS011;41357;52.806;18.268;2022-11-04T10:39:30;17.70;;;9.25;;
55497;SDS011;41357;52.806;18.268;2022-11-04T10:41:57;15.73;;;8.57;;
55497;SDS011;41357;52.806;18.268;2022-11-04T10:46:58;21.25;;;8.55;;
55497;SDS011;41357;52.806;18.268;2022-11-04T10:51:53;20.13;;;8.57;;
55497;SDS011;41357;52.806;18.268;2022-11-04T10:54:20;23.35;;;9.73;;
55497;SDS011;41357;52.806;18.268;2022-11-04T10:56:50;19.65;;;7.93;;
55497;SDS011;41357;52.806;18.268;2022-11-04T11:01:53;12.43;;;7.45;;
55497;SDS011;41357;52.806;18.268;2022-11-04T11:04:24;18.25;;;7.97;;
55497;SDS011;41357;52.806;18.268;2022-11-04T11:06:50;16.85;;;8.20;;
55497;SDS011;41357;52.806;18.268;2022-11-04T11:09:21;22.30;;;9.20;;
55497;SDS011;41357;52.806;18.268;2022-11-04T11:11:54;22.08;;;11.65;;
55497;SDS011;41357;52.806;18.268;2022-11-04T11:16:53;21.15;;;9.27;;
55497;SDS011;41357;52.806;18.268;2022-11-04T11:19:20;16.25;;;8.75;;
55497;SDS011;41357;52.806;18.268;2022-11-04T11:21:47;20.25;;;7.97;;
55497;SDS011;41357;52.806;18.268;2022-11-04T11:24:21;19.70;;;10.00;;
55497;SDS011;41357;52.806;18.268;2022-11-04T11:26:52;26.15;;;11.55;;
55497;SDS011;41357;52.806;18.268;2022-11-04T11:29:20;20.63;;;9.45;;
55497;SDS011;41357;52.806;18.268;2022-11-04T11:31:47;21.27;;;8.95;;
55497;SDS011;41357;52.806;18.268;2022-11-04T11:34:24;22.75;;;10.07;;
55497;SDS011;41357;52.806;18.268;2022-11-04T11:36:51;19.05;;;8.80;;
55497;SDS011;41357;52.806;18.268;2022-11-04T11:39:18;23.63;;;10.18;;
55497;SDS011;41357;52.806;18.268;2022-11-04T11:41:50;20.35;;;9.48;;
55497;SDS011;41357;52.806;18.268;2022-11-04T11:46:48;21.33;;;11.30;;
55497;SDS011;41357;52.806;18.268;2022-11-04T11:49:22;27.60;;;14.23;;
55497;SDS011;41357;52.806;18.268;2022-11-04T11:51:49;25.45;;;11.70;;
55497;SDS011;41357;52.806;18.268;2022-11-04T11:56:55;32.70;;;15.85;;
55497;SDS011;41357;52.806;18.268;2022-11-04T11:59:24;17.58;;;9.57;;
55497;SDS011;41357;52.806;18.268;2022-11-04T12:04:36;24.10;;;9.68;;
55497;SDS011;41357;52.806;18.268;2022-11-04T12:12:30;17.15;;;9.50;;
55497;SDS011;41357;52.806;18.268;2022-11-04T12:33:36;20.75;;;10.65;;
55497;SDS011;41357;52.806;18.268;2022-11-04T12:36:16;21.02;;;10.55;;
55497;SDS011;41357;52.806;18.268;2022-11-04T12:39:09;20.50;;;9.93;;
55497;SDS011;41357;52.806;18.268;2022-11-04T12:44:21;21.73;;;9.90;;
55497;SDS011;41357;52.806;18.268;2022-11-04T12:49:31;21.80;;;10.95;;
55497;SDS011;41357;52.806;18.268;2022-11-04T12:57:04;17.75;;;9.10;;
55497;SDS011;41357;52.806;18.268;2022-11-04T13:07:38;25.73;;;10.85;;
55497;SDS011;41357;52.806;18.268;2022-11-04T13:10:09;19.55;;;9.63;;
55497;SDS011;41357;52.806;18.268;2022-11-04T13:12:40;21.10;;;9.93;;
55497;SDS011;41357;52.806;18.268;2022-11-04T13:17:37;20.58;;;10.10;;
55497;SDS011;41357;52.806;18.268;2022-11-04T13:22:40;24.35;;;8.93;;
55497;SDS011;41357;52.806;18.268;2022-11-04T13:28:15;12.02;;;6.90;;
55497;SDS011;41357;52.806;18.268;2022-11-04T13:38:57;17.98;;;7.63;;
55497;SDS011;41357;52.806;18.268;2022-11-04T13:43:51;15.73;;;7.38;;
55497;SDS011;41357;52.806;18.268;2022-11-04T13:46:20;13.23;;;5.32;;
55497;SDS011;41357;52.806;18.268;2022-11-04T13:48:50;20.25;;;6.80;;
55497;SDS011;41357;52.806;18.268;2022-11-04T13:51:17;12.88;;;6.28;;
55497;SDS011;41357;52.806;18.268;2022-11-04T13:53:56;13.73;;;6.18;;
55497;SDS011;41357;52.806;18.268;2022-11-04T13:56:26;17.50;;;6.97;;
55497;SDS011;41357;52.806;18.268;2022-11-04T13:58:53;12.90;;;6.60;;
55497;SDS011;41357;52.806;18.268;2022-11-04T14:04:32;20.42;;;8.50;;
55497;SDS011;41357;52.806;18.268;2022-11-04T14:06:47;19.10;;;8.98;;
55497;SDS011;41357;52.806;18.268;2022-11-04T14:25:22;19.05;;;9.77;;
55497;SDS011;41357;52.806;18.268;2022-11-04T14:27:50;25.92;;;12.07;;
55497;SDS011;41357;52.806;18.268;2022-11-04T14:33:05;34.95;;;21.13;;
55497;SDS011;41357;52.806;18.268;2022-11-04T14:35:32;23.03;;;12.70;;
55497;SDS011;41357;52.806;18.268;2022-11-04T14:38:06;21.17;;;10.60;;
55497;SDS011;41357;52.806;18.268;2022-11-04T14:43:32;21.40;;;9.77;;
55497;SDS011;41357;52.806;18.268;2022-11-04T14:46:00;24.10;;;11.63;;
55497;SDS011;41357;52.806;18.268;2022-11-04T14:48:26;19.02;;;9.85;;
55497;SDS011;41357;52.806;18.268;2022-11-04T14:50:53;16.55;;;9.00;;
55497;SDS011;41357;52.806;18.268;2022-11-04T14:53:33;18.85;;;9.30;;
55497;SDS011;41357;52.806;18.268;2022-11-04T14:56:10;19.75;;;8.88;;
55497;SDS011;41357;52.806;18.268;2022-11-04T14:58:48;25.10;;;9.77;;
55497;SDS011;41357;52.806;18.268;2022-11-04T15:01:16;17.35;;;8.80;;
55497;SDS011;41357;52.806;18.268;2022-11-04T15:03:42;16.27;;;8.82;;
55497;SDS011;41357;52.806;18.268;2022-11-04T15:06:11;26.27;;;11.35;;
55497;SDS011;41357;52.806;18.268;2022-11-04T15:11:12;18.48;;;9.38;;
55497;SDS011;41357;52.806;18.268;2022-11-04T15:16:09;38.40;;;17.55;;
55497;SDS011;41357;52.806;18.268;2022-11-04T15:18:36;28.33;;;12.55;;
55497;SDS011;41357;52.806;18.268;2022-11-04T15:21:03;18.55;;;10.65;;
55497;SDS011;41357;52.806;18.268;2022-11-04T15:23:30;18.10;;;9.45;;
55497;SDS011;41357;52.806;18.268;2022-11-04T15:25:58;22.95;;;12.30;;
55497;SDS011;41357;52.806;18.268;2022-11-04T15:28:26;19.98;;;9.73;;
55497;SDS011;41357;52.806;18.268;2022-11-04T15:33:23;19.40;;;9.90;;
55497;SDS011;41357;52.806;18.268;2022-11-04T15:35:49;21.38;;;9.95;;
55497;SDS011;41357;52.806;18.268;2022-11-04T15:38:16;25.60;;;11.65;;
55497;SDS011;41357;52.806;18.268;2022-11-04T15:40:43;20.92;;;10.70;;
55497;SDS011;41357;52.806;18.268;2022-11-04T15:43:09;20.90;;;10.75;;
55497;SDS011;41357;52.806;18.268;2022-11-04T15:45:48;40.92;;;13.55;;
55497;SDS011;41357;52.806;18.268;2022-11-04T15:48:28;22.20;;;9.73;;
55497;SDS011;41357;52.806;18.268;2022-11-04T15:53:24;20.48;;;9.65;;
55497;SDS011;41357;52.806;18.268;2022-11-04T15:55:50;38.42;;;16.23;;
55497;SDS011;41357;52.806;18.268;2022-11-04T15:58:16;29.63;;;12.65;;
55497;SDS011;41357;52.806;18.268;2022-11-04T16:00:50;29.33;;;15.65;;
55497;SDS011;41357;52.806;18.268;2022-11-04T16:03:17;30.90;;;15.88;;
55497;SDS011;41357;52.806;18.268;2022-11-04T16:05:58;34.40;;;17.40;;
55497;SDS011;41357;52.806;18.268;2022-11-04T16:08:28;40.10;;;17.25;;
55497;SDS011;41357;52.806;18.268;2022-11-04T16:13:40;33.20;;;16.40;;
55497;SDS011;41357;52.806;18.268;2022-11-04T16:16:27;24.33;;;12.48;;
55497;SDS011;41357;52.806;18.268;2022-11-04T16:18:53;41.08;;;16.00;;
55497;SDS011;41357;52.806;18.268;2022-11-04T16:21:21;20.65;;;10.90;;
55497;SDS011;41357;52.806;18.268;2022-11-04T16:23:50;40.67;;;17.13;;
55497;SDS011;41357;52.806;18.268;2022-11-04T16:26:22;34.25;;;15.90;;
55497;SDS011;41357;52.806;18.268;2022-11-04T16:28:51;37.55;;;17.02;;
55497;SDS011;41357;52.806;18.268;2022-11-04T16:33:47;35.80;;;16.15;;
55497;SDS011;41357;52.806;18.268;2022-11-04T16:36:14;23.70;;;12.00;;
55497;SDS011;41357;52.806;18.268;2022-11-04T16:38:53;29.88;;;13.75;;
55497;SDS011;41357;52.806;18.268;2022-11-04T16:41:20;36.40;;;15.90;;
55497;SDS011;41357;52.806;18.268;2022-11-04T16:43:47;44.95;;;19.58;;
55497;SDS011;41357;52.806;18.268;2022-11-04T16:46:13;48.85;;;19.77;;
55497;SDS011;41357;52.806;18.268;2022-11-04T16:48:40;56.35;;;27.30;;
55497;SDS011;41357;52.806;18.268;2022-11-04T16:51:08;54.42;;;26.58;;
55497;SDS011;41357;52.806;18.268;2022-11-04T16:53:35;48.30;;;27.33;;
55497;SDS011;41357;52.806;18.268;2022-11-04T16:56:01;51.60;;;25.02;;
55497;SDS011;41357;52.806;18.268;2022-11-04T16:58:27;43.55;;;22.15;;
55497;SDS011;41357;52.806;18.268;2022-11-04T17:00:54;48.10;;;24.67;;
55497;SDS011;41357;52.806;18.268;2022-11-04T17:03:20;45.10;;;22.40;;
55497;SDS011;41357;52.806;18.268;2022-11-04T17:05:50;35.63;;;19.85;;
55497;SDS011;41357;52.806;18.268;2022-11-04T17:08:18;39.92;;;20.58;;
55497;SDS011;41357;52.806;18.268;2022-11-04T17:10:45;41.97;;;22.63;;
55497;SDS011;41357;52.806;18.268;2022-11-04T17:13:11;50.88;;;22.38;;
55497;SDS011;41357;52.806;18.268;2022-11-04T17:15:38;40.88;;;18.65;;
55497;SDS011;41357;52.806;18.268;2022-11-04T17:18:04;36.35;;;18.52;;
55497;SDS011;41357;52.806;18.268;2022-11-04T17:20:30;40.60;;;18.52;;
55497;SDS011;41357;52.806;18.268;2022-11-04T17:22:57;34.15;;;17.65;;
55497;SDS011;41357;52.806;18.268;2022-11-04T17:25:24;32.25;;;17.45;;